Time;durP1;ratioP1;P1;durP2;ratioP2;P2;SDS_P1;SDS_P2;PMS_P1;PMS_P2;Temp;Humidity;BMP_temperature;BMP_pressure;BME280_temperature;BME280_humidity;BME280_pressure;Samples;Min_cycle;Max_cycle;Signal;HPM_P1;HPM_P2
2023/04/24 00:03:29;;;;;;;3.65;1.00;;;;;;;11.57;100.00;98611.84;12199980;19;20447;-80
2023/04/24 00:07:35;;;;;;;2.53;0.88;;;;;;;11.59;100.00;98602.16;12201388;19;20078;-80
2023/04/24 00:11:37;;;;;;;1.95;0.75;;;;;;;11.66;100.00;98599.13;12189234;19;20015;-80
2023/04/24 00:15:39;;;;;;;1.67;0.70;;;;;;;11.70;100.00;98588.31;12211362;19;20483;-79
2023/04/24 00:19:40;;;;;;;0.88;0.70;;;;;;;11.75;100.00;98586.34;12208405;19;20021;-79
2023/04/24 00:23:43;;;;;;;1.27;0.80;;;;;;;11.76;100.00;98576.13;12190172;19;20033;-80
2023/04/24 00:27:45;;;;;;;3.88;0.88;;;;;;;11.74;100.00;98573.63;12209378;19;20034;-80
2023/04/24 00:31:47;;;;;;;2.35;1.02;;;;;;;11.73;100.00;98571.19;12209305;19;20046;-79
2023/04/24 00:35:48;;;;;;;2.80;1.17;;;;;;;11.73;100.00;98576.69;12187719;19;20512;-80
2023/04/24 00:39:50;;;;;;;2.75;1.08;;;;;;;11.71;100.00;98568.69;12208961;19;21282;-80
2023/04/24 00:43:52;;;;;;;1.83;0.90;;;;;;;11.71;100.00;98571.47;12206566;19;20042;-79
2023/04/24 00:47:55;;;;;;;3.55;1.38;;;;;;;11.68;100.00;98555.47;12188628;19;20014;-80
2023/04/24 00:51:59;;;;;;;2.33;1.05;;;;;;;11.58;100.00;98564.66;12212115;19;20092;-80
2023/04/24 00:56:01;;;;;;;1.48;0.82;;;;;;;11.57;100.00;98562.19;12188531;19;20028;-79
2023/04/24 01:00:05;;;;;;;1.45;0.80;;;;;;;11.60;100.00;98562.44;12213216;19;20058;-79
2023/04/24 01:04:09;;;;;;;2.72;0.90;;;;;;;11.63;100.00;98561.06;12212125;19;20015;-80
2023/04/24 01:08:12;;;;;;;2.95;1.00;;;;;;;11.61;100.00;98557.75;12184802;19;20014;-80
2023/04/24 01:12:14;;;;;;;4.07;0.93;;;;;;;11.66;100.00;98548.59;12196096;19;20007;-79
2023/04/24 01:16:20;;;;;;;2.05;1.05;;;;;;;11.56;100.00;98549.50;12203972;19;20007;-80
2023/04/24 01:20:24;;;;;;;3.55;1.13;;;;;;;11.41;100.00;98561.47;12181754;19;20105;-80
2023/04/24 01:24:26;;;;;;;2.33;1.08;;;;;;;11.27;100.00;98552.16;12202368;19;20014;-80
2023/04/24 01:28:27;;;;;;;2.08;1.23;;;;;;;11.20;100.00;98551.69;12203925;19;20011;-80
2023/04/24 01:32:29;;;;;;;3.45;0.95;;;;;;;11.16;100.00;98566.03;12183121;19;20008;-78
2023/04/24 01:36:32;;;;;;;2.17;0.98;;;;;;;11.26;100.00;98567.09;12203697;19;20010;-79
2023/04/24 01:40:35;;;;;;;3.25;0.82;;;;;;;11.27;100.00;98575.06;12202437;19;20792;-80
2023/04/24 01:44:37;;;;;;;2.55;1.00;;;;;;;11.32;100.00;98564.00;12176660;19;20442;-80
2023/04/24 01:48:38;;;;;;;1.50;0.90;;;;;;;11.39;100.00;98564.53;12197706;19;20003;-80
2023/04/24 01:52:40;;;;;;;3.25;1.10;;;;;;;11.41;100.00;98551.25;12196854;19;20018;-80
2023/04/24 01:56:45;;;;;;;1.83;1.00;;;;;;;11.43;100.00;98556.50;12182022;19;20114;-80
2023/04/24 02:00:46;;;;;;;2.20;0.73;;;;;;;11.47;100.00;98557.56;12199720;19;20010;-80
2023/04/24 02:04:48;;;;;;;2.85;0.90;;;;;;;11.39;100.00;98549.88;12202642;19;20014;-79
2023/04/24 02:08:50;;;;;;;2.10;0.80;;;;;;;11.41;100.00;98562.28;12180017;19;20031;-80
2023/04/24 02:12:52;;;;;;;4.53;1.30;;;;;;;11.46;100.00;98547.66;12197847;19;20072;-79
2023/04/24 02:16:57;;;;;;;1.90;0.93;;;;;;;11.50;100.00;98547.91;12179559;19;20010;-81
2023/04/24 02:20:59;;;;;;;4.57;1.25;;;;;;;11.52;100.00;98552.03;12199148;19;20578;-80
2023/04/24 02:25:01;;;;;;;4.15;1.23;;;;;;;11.52;100.00;98556.72;12196306;19;20027;-81
2023/04/24 02:29:03;;;;;;;3.03;1.38;;;;;;;11.49;100.00;98560.06;12173337;19;20003;-80
2023/04/24 02:33:05;;;;;;;2.13;1.15;;;;;;;11.50;100.00;98569.97;12200885;19;19999;-80
2023/04/24 02:37:07;;;;;;;3.85;1.27;;;;;;;11.44;100.00;98576.63;12201124;19;20553;-81
2023/04/24 02:41:10;;;;;;;5.03;1.42;;;;;;;11.42;100.00;98576.91;12181610;19;20011;-82
2023/04/24 02:45:12;;;;;;;6.15;1.50;;;;;;;11.36;100.00;98578.03;12203548;19;20014;-80
2023/04/24 02:49:15;;;;;;;1.87;1.10;;;;;;;11.28;100.00;98582.25;12192606;19;20011;-80
2023/04/24 02:53:16;;;;;;;2.75;1.30;;;;;;;11.20;100.00;98579.25;12176231;19;20404;-80
2023/04/24 02:57:18;;;;;;;2.92;1.35;;;;;;;11.14;100.00;98581.22;12193416;19;20061;-80
2023/04/24 03:01:20;;;;;;;2.33;1.60;;;;;;;11.07;100.00;98580.69;12197758;19;20034;-79
2023/04/24 03:05:22;;;;;;;4.25;1.50;;;;;;;11.01;100.00;98584.59;12174056;19;20079;-79
2023/04/24 03:09:24;;;;;;;5.53;1.92;;;;;;;10.94;100.00;98598.66;12196008;19;20003;-79
2023/04/24 03:13:26;;;;;;;2.60;1.50;;;;;;;10.83;100.00;98608.09;12195314;19;20035;-80
2023/04/24 03:17:27;;;;;;;4.25;1.65;;;;;;;10.80;100.00;98611.41;12176374;19;20035;-80
2023/04/24 03:21:29;;;;;;;3.40;1.48;;;;;;;10.73;100.00;98608.94;12197950;19;20079;-80
2023/04/24 03:25:32;;;;;;;3.47;1.42;;;;;;;10.69;100.00;98602.34;12197449;19;20074;-81
2023/04/24 03:29:34;;;;;;;7.47;1.77;;;;;;;10.59;100.00;98599.59;12177216;19;20010;-78
2023/04/24 03:33:37;;;;;;;3.33;1.53;;;;;;;10.44;100.00;98612.31;12198746;19;19998;-81
2023/04/24 03:37:40;;;;;;;2.63;1.15;;;;;;;10.32;100.00;98614.53;12201855;19;20014;-80
2023/04/24 03:42:15;;;;;;;4.43;1.50;;;;;;;10.26;100.00;98621.97;12189525;19;20086;-84
2023/04/24 03:46:25;;;;;;;7.95;1.50;;;;;;;10.22;100.00;98614.50;12203472;19;20443;-81
2023/04/24 03:50:31;;;;;;;3.28;1.52;;;;;;;10.10;100.00;98616.72;12178041;19;20003;-84
2023/04/24 03:54:34;;;;;;;5.50;1.80;;;;;;;10.06;100.00;98615.63;12196748;19;20018;-81
2023/04/24 03:58:36;;;;;;;4.60;1.75;;;;;;;10.03;100.00;98628.00;12197800;19;20027;-84
2023/04/24 04:02:39;;;;;;;4.22;2.10;;;;;;;9.96;100.00;98647.53;12177583;19;20003;-80
2023/04/24 04:06:44;;;;;;;5.35;1.80;;;;;;;9.92;100.00;98651.94;12194887;19;20002;-85
2023/04/24 04:10:46;;;;;;;4.72;1.90;;;;;;;9.83;100.00;98659.09;12196324;19;20127;-80
2023/04/24 04:14:48;;;;;;;6.38;2.05;;;;;;;9.64;100.00;98658.78;12177853;19;20014;-81
2023/04/24 04:18:50;;;;;;;3.22;1.83;;;;;;;9.49;100.00;98658.75;12195201;19;20356;-79
2023/04/24 04:22:51;;;;;;;5.60;2.47;;;;;;;9.31;100.00;98655.41;12196833;19;20007;-81
2023/04/24 04:27:01;;;;;;;5.03;2.65;;;;;;;9.20;100.00;98664.69;12169252;19;20010;-81
2023/04/24 04:31:09;;;;;;;5.05;2.28;;;;;;;9.06;100.00;98672.59;12196829;19;20007;-80
2023/04/24 04:35:13;;;;;;;4.32;2.80;;;;;;;8.97;100.00;98676.94;12175769;19;21748;-80
2023/04/24 04:39:16;;;;;;;6.38;3.30;;;;;;;8.92;100.00;98676.91;12191434;19;20358;-80
2023/04/24 04:43:28;;;;;;;;;;;;;;;8.85;100.00;98681.84;12194806;19;20194;-81
2023/04/24 04:47:31;;;;;;;4.53;2.70;;;;;;;8.83;100.00;98681.28;12171127;19;20006;-82
2023/04/24 04:51:35;;;;;;;5.07;2.67;;;;;;;8.78;100.00;98684.00;12191964;19;20346;-86
2023/04/24 04:55:39;;;;;;;8.25;3.28;;;;;;;8.77;100.00;98688.66;12204083;19;20006;-80
2023/04/24 04:59:46;;;;;;;7.32;3.42;;;;;;;8.83;100.00;98695.84;12184753;19;20019;-80
2023/04/24 05:03:56;;;;;;;5.90;3.50;;;;;;;8.86;100.00;98702.72;12214261;19;20627;-79
2023/04/24 05:08:00;;;;;;;7.25;3.55;;;;;;;8.88;100.00;98712.34;12187104;19;20015;-80
2023/04/24 05:12:02;;;;;;;6.82;2.75;;;;;;;8.87;100.00;98716.19;12209827;19;21461;-81
2023/04/24 05:16:09;;;;;;;5.25;3.42;;;;;;;8.93;100.00;98719.81;12211203;19;20038;-79
2023/04/24 05:20:14;;;;;;;5.80;3.60;;;;;;;9.07;100.00;98736.63;12182871;19;20028;-80
2023/04/24 05:24:19;;;;;;;5.40;3.13;;;;;;;9.27;100.00;98744.97;12200755;19;20010;-80
2023/04/24 05:28:40;;;;;;;6.40;3.53;;;;;;;9.33;100.00;98751.34;12200776;19;21337;-81
2023/04/24 05:32:45;;;;;;;5.50;3.40;;;;;;;9.30;100.00;98757.38;12182071;19;19999;-80
2023/04/24 05:36:48;;;;;;;6.97;3.70;;;;;;;9.36;100.00;98756.31;12200514;19;20030;-79
2023/04/24 05:40:50;;;;;;;6.18;3.50;;;;;;;9.56;100.00;98761.06;12199091;19;20023;-79
2023/04/24 05:44:54;;;;;;;5.78;2.90;;;;;;;9.82;100.00;98759.25;12178581;19;20003;-78
2023/04/24 05:48:58;;;;;;;5.88;3.10;;;;;;;10.03;100.00;98780.22;12197223;19;20002;-82
2023/04/24 05:53:02;;;;;;;4.88;3.00;;;;;;;10.05;100.00;98779.91;12180400;19;20420;-80
2023/04/24 05:57:09;;;;;;;5.60;3.60;;;;;;;9.88;100.00;98788.44;12200746;19;20003;-80
2023/04/24 06:01:24;;;;;;;5.75;4.03;;;;;;;9.78;100.00;98796.63;12200695;19;19998;-81
2023/04/24 06:05:40;;;;;;;5.80;3.83;;;;;;;9.73;100.00;98799.38;12176220;19;20011;-80
2023/04/24 06:09:45;;;;;;;7.70;3.45;;;;;;;9.76;100.00;98794.16;12198070;19;20011;-83
2023/04/24 06:13:48;;;;;;;4.82;3.28;;;;;;;9.72;100.00;98792.19;12202311;19;20133;-79
2023/04/24 06:18:11;;;;;;;7.00;3.53;;;;;;;9.69;100.00;98793.56;12176243;19;20026;-81
2023/04/24 06:22:13;;;;;;;4.78;2.88;;;;;;;9.65;100.00;98802.63;12189277;19;20010;-78
2023/04/24 06:26:16;;;;;;;5.65;3.55;;;;;;;9.64;100.00;98800.97;12147058;19;20034;-79
2023/04/24 06:30:20;;;;;;;6.30;3.67;;;;;;;9.64;100.00;98801.81;12200160;19;20003;-79
2023/04/24 06:34:23;;;;;;;6.10;3.28;;;;;;;9.68;100.00;98807.59;12201333;19;20007;-78
2023/04/24 06:38:26;;;;;;;7.50;4.43;;;;;;;9.73;100.00;98807.63;12177737;19;20082;-80
2023/04/24 06:42:28;;;;;;;6.45;4.22;;;;;;;9.74;100.00;98814.78;12202163;19;20134;-81
2023/04/24 06:46:30;;;;;;;8.67;4.23;;;;;;;9.81;100.00;98821.69;12198391;19;20026;-79
2023/04/24 06:50:32;;;;;;;7.68;4.57;;;;;;;9.96;100.00;98826.41;12181504;19;20006;-80
2023/04/24 06:54:35;;;;;;;10.25;5.20;;;;;;;10.32;100.00;98821.06;12202919;19;20007;-79
2023/04/24 06:58:38;;;;;;;9.23;5.03;;;;;;;10.73;100.00;98821.09;12198907;19;20025;-78
2023/04/24 07:02:40;;;;;;;12.88;5.28;;;;;;;10.75;100.00;98824.41;12182825;19;20007;-79
2023/04/24 07:06:46;;;;;;;6.50;4.13;;;;;;;10.65;100.00;98821.66;12201654;19;20502;-78
2023/04/24 07:10:51;;;;;;;8.63;4.85;;;;;;;10.85;100.00;98816.13;12200094;19;20277;-79
2023/04/24 07:14:54;;;;;;;8.68;4.75;;;;;;;11.05;100.00;98822.75;12179531;19;20015;-80
2023/04/24 07:18:55;;;;;;;9.20;5.20;;;;;;;11.02;100.00;98826.88;12197738;19;20408;-78
2023/04/24 07:23:00;;;;;;;7.82;4.70;;;;;;;11.35;100.00;98819.94;12180186;19;20103;-80
2023/04/24 07:27:05;;;;;;;7.30;4.45;;;;;;;11.71;100.00;98821.75;12198960;19;20381;-79
2023/04/24 07:31:10;;;;;;;12.18;5.03;;;;;;;11.71;98.83;98827.28;12194840;19;20010;-79
2023/04/24 07:35:12;;;;;;;8.43;4.72;;;;;;;11.48;97.21;98826.81;12177012;19;20018;-79
2023/04/24 07:39:16;;;;;;;8.82;4.65;;;;;;;11.36;98.65;98832.63;12192501;19;20054;-78
2023/04/24 07:48:31;;;;;;;6.68;3.90;;;;;;;11.69;98.45;98838.63;12095681;19;2004483;-78
2023/04/24 07:52:34;;;;;;;7.85;3.97;;;;;;;11.66;99.24;98830.91;12205638;19;20015;-80
2023/04/24 07:56:38;;;;;;;7.00;3.92;;;;;;;11.94;98.56;98832.19;12182328;19;20015;-78
2023/04/24 08:00:41;;;;;;;7.00;4.03;;;;;;;11.75;97.04;98840.25;12204865;19;20074;-79
2023/04/24 08:04:43;;;;;;;4.72;2.50;;;;;;;11.57;90.68;98851.88;12204985;19;20019;-79
2023/04/24 08:08:45;;;;;;;3.03;1.63;;;;;;;11.43;83.53;98840.63;12181972;19;20006;-77
2023/04/24 08:12:49;;;;;;;5.82;1.63;;;;;;;11.83;79.82;98841.59;12199229;19;20007;-79
2023/04/24 08:16:55;;;;;;;3.22;1.80;;;;;;;12.39;75.15;98840.53;12204376;19;20003;-79
2023/04/24 08:21:01;;;;;;;3.58;1.92;;;;;;;12.94;75.93;98844.03;12180408;19;20013;-78
2023/04/24 08:25:03;;;;;;;3.53;2.10;;;;;;;12.93;72.37;98853.41;12204653;19;20062;-79
2023/04/24 08:29:06;;;;;;;7.07;2.30;;;;;;;12.87;75.47;98865.63;12183993;19;20030;-79
2023/04/24 08:33:09;;;;;;;3.57;2.17;;;;;;;12.92;75.44;98854.53;12216698;19;20023;-79
2023/04/24 08:37:11;;;;;;;3.53;1.80;;;;;;;12.88;75.27;98864.50;12209789;19;20061;-79
2023/04/24 08:41:14;;;;;;;3.55;1.90;;;;;;;12.83;71.77;98879.22;12188537;19;21263;-79
2023/04/24 08:45:18;;;;;;;4.40;2.20;;;;;;;13.16;68.20;98891.38;12218638;19;20017;-79
2023/04/24 08:49:23;;;;;;;4.40;2.35;;;;;;;13.64;67.99;98885.16;12221431;19;20027;-79
2023/04/24 08:53:26;;;;;;;3.55;2.38;;;;;;;13.78;66.49;98911.06;12195705;19;20526;-84
2023/04/24 08:57:32;;;;;;;4.18;2.10;;;;;;;13.35;68.67;98904.53;12211378;19;20007;-79
2023/04/24 09:01:34;;;;;;;4.07;2.28;;;;;;;12.97;68.63;98901.50;12216350;19;20006;-79
2023/04/24 09:05:38;;;;;;;3.78;2.28;;;;;;;12.96;69.39;98908.13;12190569;19;20021;-78
2023/04/24 09:09:41;;;;;;;5.90;2.23;;;;;;;12.70;69.41;98919.38;12213726;19;20598;-79
2023/04/24 09:13:43;;;;;;;3.45;2.08;;;;;;;12.42;69.76;98928.38;12215518;19;20010;-79
2023/04/24 09:17:47;;;;;;;4.72;2.20;;;;;;;12.22;71.45;98932.84;12190564;19;20010;-79
2023/04/24 09:21:52;;;;;;;5.80;2.45;;;;;;;12.43;69.47;98933.63;12213798;19;20019;-82
2023/04/24 09:25:56;;;;;;;4.85;2.78;;;;;;;12.27;71.46;98938.38;12190684;19;20127;-80
2023/04/24 09:30:01;;;;;;;6.30;2.55;;;;;;;12.45;72.68;98938.84;12211302;19;20010;-79
2023/04/24 09:34:07;;;;;;;5.80;2.92;;;;;;;12.30;71.49;98948.84;12213817;19;20041;-80
2023/04/24 09:38:11;;;;;;;4.20;2.38;;;;;;;12.40;71.32;98953.50;12203338;19;20026;-80
2023/04/24 09:42:12;;;;;;;4.43;2.60;;;;;;;12.43;72.36;98950.19;12210953;19;20010;-78
2023/04/24 09:46:18;;;;;;;4.72;2.47;;;;;;;12.37;72.70;98967.06;12218788;19;20006;-81
2023/04/24 09:50:21;;;;;;;6.45;2.63;;;;;;;12.50;73.40;98958.19;12190937;19;20484;-79
2023/04/24 09:54:24;;;;;;;5.60;2.70;;;;;;;12.59;72.14;98953.72;12211413;19;20006;-79
2023/04/24 09:58:29;;;;;;;4.68;2.88;;;;;;;12.59;72.85;98958.41;12209627;19;20028;-80
2023/04/24 10:02:32;;;;;;;4.68;2.63;;;;;;;12.95;71.74;98964.56;12192368;19;21587;-79
2023/04/24 10:06:37;;;;;;;5.43;2.28;;;;;;;13.14;70.58;98962.75;12209483;19;20692;-79
2023/04/24 10:10:45;;;;;;;6.72;2.83;;;;;;;13.27;69.54;98958.56;12210193;19;20566;-81
2023/04/24 10:14:49;;;;;;;4.15;2.75;;;;;;;13.16;69.01;98959.72;12189386;19;20642;-81
2023/04/24 10:18:51;;;;;;;3.58;2.63;;;;;;;13.00;71.78;98959.84;12207175;19;20006;-79
2023/04/24 10:22:54;;;;;;;4.22;2.30;;;;;;;12.75;70.37;98968.28;12202724;19;20026;-81
2023/04/24 10:27:05;;;;;;;4.20;2.50;;;;;;;12.41;73.20;98990.28;12209750;19;20421;-79
2023/04/24 10:31:09;;;;;;;3.47;2.03;;;;;;;12.21;75.14;98983.69;12210051;19;20034;-81
2023/04/24 10:35:15;;;;;;;3.25;2.10;;;;;;;12.15;75.86;98986.75;12185112;19;20027;-79
2023/04/24 10:39:22;;;;;;;4.78;2.50;;;;;;;12.16;76.45;98991.97;12202822;19;20028;-80
2023/04/24 10:43:28;;;;;;;4.07;1.98;;;;;;;12.50;76.79;98994.09;12203734;19;20007;-79
2023/04/24 10:47:39;;;;;;;5.03;2.22;;;;;;;13.06;74.22;98990.19;12185956;19;20018;-79
2023/04/24 10:51:53;;;;;;;6.50;2.45;;;;;;;13.52;70.85;98987.97;12205842;19;20018;-80
2023/04/24 10:55:57;;;;;;;3.25;2.05;;;;;;;14.08;68.74;98990.22;12185240;19;20435;-79
2023/04/24 11:00:21;;;;;;;4.53;2.28;;;;;;;14.85;64.26;98989.34;12204619;19;20038;-78
2023/04/24 11:04:31;;;;;;;5.63;2.58;;;;;;;14.22;64.13;98983.97;12206433;19;20424;-77
2023/04/24 11:08:48;;;;;;;3.90;1.95;;;;;;;13.35;67.19;98987.56;12183519;19;20024;-80
2023/04/24 11:12:51;;;;;;;4.53;2.20;;;;;;;13.22;69.91;98994.53;12202955;19;20006;-77
2023/04/24 11:16:57;;;;;;;4.00;2.33;;;;;;;12.82;69.12;99001.97;12206935;19;20003;-78
2023/04/24 11:20:59;;;;;;;4.75;2.13;;;;;;;12.51;72.50;99015.09;12179078;19;20373;-79
2023/04/24 11:25:02;;;;;;;3.53;2.30;;;;;;;12.37;73.07;99011.25;12204451;19;20031;-78
2023/04/24 11:29:08;;;;;;;7.93;2.40;;;;;;;12.37;74.99;99017.59;12178909;19;20026;-78
2023/04/24 11:33:20;;;;;;;5.40;2.75;;;;;;;12.12;79.37;99031.50;12205346;19;20602;-79
2023/04/24 11:37:27;;;;;;;6.05;2.30;;;;;;;11.60;80.89;99020.47;12204560;19;20011;-79
2023/04/24 11:41:33;;;;;;;5.93;3.25;;;;;;;11.45;82.67;99017.72;12180967;19;20034;-79
2023/04/24 11:45:35;;;;;;;6.35;3.13;;;;;;;11.43;82.30;99017.16;12205760;19;20010;-79
2023/04/24 11:49:37;;;;;;;4.88;2.72;;;;;;;11.48;82.63;99019.06;12205409;19;20027;-78
2023/04/24 11:53:39;;;;;;;3.88;2.55;;;;;;;11.48;82.41;99030.09;12180610;19;20098;-78
2023/04/24 11:57:49;;;;;;;4.75;2.78;;;;;;;11.48;98.57;99042.00;12205891;19;20025;-79
2023/04/24 12:01:51;;;;;;;7.30;3.05;;;;;;;11.03;100.00;99056.50;12211442;19;20018;-78
2023/04/24 12:06:06;;;;;;;6.30;3.27;;;;;;;10.82;100.00;99067.47;12187722;19;21644;-80
2023/04/24 12:10:09;;;;;;;7.75;3.40;;;;;;;10.53;100.00;99063.47;12209766;19;20006;-81
2023/04/24 12:14:11;;;;;;;;;;;;;;;10.34;100.00;99047.41;12185796;19;20003;-81
2023/04/24 12:18:13;;;;;;;4.00;1.70;;;;;;;10.60;100.00;99050.31;12211691;19;19910;-81
2023/04/24 12:22:18;;;;;;;2.45;1.77;;;;;;;10.93;100.00;99051.81;12210409;19;20357;-81
2023/04/24 12:26:22;;;;;;;3.47;1.98;;;;;;;11.77;100.00;99058.81;12185252;19;20444;-81
2023/04/24 12:30:28;;;;;;;;;;;;;;;12.83;97.13;99060.84;12203946;19;20014;-80
2023/04/24 12:34:35;;;;;;;4.75;2.42;;;;;;;12.81;93.12;99063.06;12204035;19;19927;-80
2023/04/24 12:38:40;;;;;;;5.03;2.83;;;;;;;13.35;92.29;99059.50;12182849;19;20007;-79
2023/04/24 12:42:48;;;;;;;5.07;2.78;;;;;;;14.76;78.36;99052.97;12195672;19;20030;-79
2023/04/24 12:46:55;;;;;;;3.65;2.40;;;;;;;14.61;72.04;99055.09;12181433;19;20011;-80
2023/04/24 12:51:01;;;;;;;4.03;2.35;;;;;;;14.14;69.83;99060.25;12200331;19;20423;-79
2023/04/24 12:55:10;;;;;;;7.00;2.47;;;;;;;14.64;71.00;99060.88;12202778;19;20011;-79
2023/04/24 12:59:11;;;;;;;4.22;2.60;;;;;;;15.81;65.19;99050.09;12177790;19;20014;-78
2023/04/24 13:03:15;;;;;;;7.22;3.25;;;;;;;18.16;60.22;99045.19;12202515;19;20094;-79
2023/04/24 13:07:19;;;;;;;4.13;2.58;;;;;;;18.46;51.21;99039.94;12200244;19;20074;-79
2023/04/24 13:11:21;;;;;;;4.97;2.83;;;;;;;17.76;53.23;99050.63;12177781;19;20488;-79
2023/04/24 13:15:23;;;;;;;6.63;3.37;;;;;;;17.28;54.76;99050.34;12210823;19;20014;-78
2023/04/24 13:19:26;;;;;;;10.20;2.50;;;;;;;17.36;55.04;99054.38;12207115;19;20011;-78
2023/04/24 13:23:29;;;;;;;3.85;2.35;;;;;;;17.41;49.25;99054.25;12190687;19;20130;-79
2023/04/24 13:27:30;;;;;;;4.73;2.37;;;;;;;18.27;46.26;99036.56;12208127;19;20011;-78
2023/04/24 13:31:33;;;;;;;4.20;2.28;;;;;;;18.14;46.38;99050.25;12212494;19;20003;-79
2023/04/24 13:35:36;;;;;;;4.47;2.30;;;;;;;19.02;43.76;99041.16;12188605;19;20002;-77
2023/04/24 13:39:38;;;;;;;5.47;2.10;;;;;;;18.03;44.85;99060.03;12206525;19;20020;-77
2023/04/24 13:43:42;;;;;;;5.68;2.60;;;;;;;16.69;47.71;99061.31;12205174;19;20717;-79
2023/04/24 13:47:45;;;;;;;6.50;3.35;;;;;;;16.01;51.79;99056.47;12183303;19;20801;-78
2023/04/24 13:51:47;;;;;;;7.35;2.70;;;;;;;15.52;51.71;99060.53;12209018;19;20013;-77
2023/04/24 13:55:52;;;;;;;5.97;2.65;;;;;;;15.02;54.40;99059.03;12212367;19;20018;-80
2023/04/24 14:00:00;;;;;;;4.63;2.42;;;;;;;15.03;54.62;99070.94;12196750;19;20017;-78
2023/04/24 14:04:07;;;;;;;4.72;2.42;;;;;;;14.93;55.11;99066.34;12209633;19;20031;-77
2023/04/24 14:08:13;;;;;;;5.20;2.75;;;;;;;14.81;55.02;99065.94;12184913;19;20006;-78
2023/04/24 14:12:16;;;;;;;5.55;2.67;;;;;;;14.66;55.09;99055.84;12207268;19;20021;-78
2023/04/24 14:16:19;;;;;;;4.30;2.83;;;;;;;14.80;56.54;99064.28;12200724;19;20002;-77
2023/04/24 14:20:22;;;;;;;6.20;2.72;;;;;;;14.65;56.10;99056.16;12179900;19;20766;-78
2023/04/24 14:24:25;;;;;;;6.93;2.88;;;;;;;14.61;56.78;99067.00;12211166;19;20018;-77
2023/04/24 14:28:28;;;;;;;3.38;2.42;;;;;;;14.39;56.40;99073.03;12215390;19;20014;-79
2023/04/24 14:32:29;;;;;;;5.68;2.63;;;;;;;14.17;57.37;99081.03;12193390;19;20003;-78
2023/04/24 14:36:31;;;;;;;4.50;2.37;;;;;;;13.95;58.24;99076.78;12203053;19;20007;-77
2023/04/24 14:40:33;;;;;;;6.83;2.77;;;;;;;13.90;59.04;99079.59;12206139;19;20002;-78
2023/04/24 14:44:38;;;;;;;4.18;2.67;;;;;;;13.82;56.93;99085.75;12173938;19;20208;-77
2023/04/24 14:48:42;;;;;;;5.63;2.58;;;;;;;13.83;57.20;99087.38;12193027;19;20014;-78
2023/04/24 14:52:46;;;;;;;5.43;2.40;;;;;;;13.82;57.58;99091.28;12202303;19;20090;-77
2023/04/24 14:56:50;;;;;;;5.63;3.00;;;;;;;13.84;58.46;99081.56;12177606;19;20574;-77
2023/04/24 15:00:54;;;;;;;7.77;2.80;;;;;;;13.67;59.25;99090.28;12200973;19;20006;-77
2023/04/24 15:04:58;;;;;;;3.63;2.40;;;;;;;13.43;59.84;99083.81;12178945;19;20006;-78
2023/04/24 15:09:01;;;;;;;4.35;2.05;;;;;;;13.30;61.06;99096.34;12197411;19;20013;-77
2023/04/24 15:13:03;;;;;;;4.37;2.20;;;;;;;13.15;61.06;99094.44;12195649;19;20014;-77
2023/04/24 15:17:05;;;;;;;4.40;2.63;;;;;;;13.14;61.65;99091.94;12175097;19;20014;-77
2023/04/24 15:21:07;;;;;;;4.93;2.28;;;;;;;13.18;60.70;99090.28;12197588;19;20007;-77
2023/04/24 15:25:09;;;;;;;6.18;2.28;;;;;;;13.30;60.79;99090.81;12199347;19;20011;-77
2023/04/24 15:29:12;;;;;;;3.28;2.10;;;;;;;13.58;60.70;99085.63;12172483;19;20003;-78
2023/04/24 15:33:15;;;;;;;3.72;2.40;;;;;;;14.18;57.88;99077.13;12198581;19;20082;-78
2023/04/24 15:37:19;;;;;;;4.15;2.63;;;;;;;14.34;58.04;99079.47;12194382;19;20031;-77
2023/04/24 15:41:22;;;;;;;7.53;2.70;;;;;;;14.43;57.26;99082.44;12171489;19;20014;-78
2023/04/24 15:45:26;;;;;;;3.58;1.92;;;;;;;14.51;56.43;99080.94;12194482;19;20011;-78
2023/04/24 15:49:28;;;;;;;4.90;2.47;;;;;;;14.53;55.86;99081.50;12195575;19;20360;-77
2023/04/24 15:53:33;;;;;;;7.57;2.65;;;;;;;14.53;55.12;99090.66;12179476;19;20065;-77
2023/04/24 15:57:35;;;;;;;3.70;1.45;;;;;;;14.80;54.61;99078.97;12198058;19;20011;-77
2023/04/24 16:01:36;;;;;;;3.80;2.25;;;;;;;15.61;52.64;99075.38;12196287;19;20035;-77
2023/04/24 16:05:38;;;;;;;5.70;3.00;;;;;;;15.54;52.16;99075.78;12180637;19;20006;-78
2023/04/24 16:09:41;;;;;;;6.93;2.97;;;;;;;15.15;53.49;99090.75;12198942;19;20002;-78
2023/04/24 16:13:47;;;;;;;4.68;2.88;;;;;;;14.76;55.40;99089.03;12205661;19;20422;-77
2023/04/24 16:17:49;;;;;;;5.03;2.58;;;;;;;14.50;56.34;99085.66;12180618;19;20031;-77
2023/04/24 16:21:55;;;;;;;5.40;3.00;;;;;;;14.30;57.55;99091.41;12202737;19;20010;-78
2023/04/24 16:25:56;;;;;;;6.30;3.30;;;;;;;14.06;57.65;99085.81;12181301;19;20002;-77
2023/04/24 16:29:59;;;;;;;5.30;2.47;;;;;;;13.80;59.62;99087.97;12201533;19;20002;-77
2023/04/24 16:34:01;;;;;;;5.72;3.08;;;;;;;13.66;60.54;99087.81;12198345;19;20026;-78
2023/04/24 16:38:03;;;;;;;7.55;3.05;;;;;;;13.50;62.17;99089.84;12178693;19;20019;-77
2023/04/24 16:42:07;;;;;;;5.85;3.55;;;;;;;13.39;63.25;99099.34;12197722;19;20018;-76
2023/04/24 16:46:10;;;;;;;6.18;3.03;;;;;;;13.27;65.49;99107.16;12187740;19;20010;-76
2023/04/24 16:50:12;;;;;;;6.18;3.25;;;;;;;13.28;66.69;99101.31;12180321;19;20479;-77
2023/04/24 16:54:14;;;;;;;7.47;3.50;;;;;;;13.75;66.66;99088.03;12213088;19;20011;-77
2023/04/24 16:58:17;;;;;;;5.50;3.30;;;;;;;13.95;65.46;99079.56;12209712;19;20011;-77
2023/04/24 17:02:19;;;;;;;4.82;3.17;;;;;;;13.51;66.44;99090.69;12188926;19;20019;-77
2023/04/24 17:06:21;;;;;;;4.43;2.97;;;;;;;13.03;69.07;99085.66;12209926;19;20015;-77
2023/04/24 17:10:25;;;;;;;5.45;3.22;;;;;;;12.74;71.85;99088.25;12209170;19;20481;-77
2023/04/24 17:14:29;;;;;;;8.13;3.38;;;;;;;12.54;74.15;99084.44;12190284;19;20038;-77
2023/04/24 17:18:33;;;;;;;5.50;3.78;;;;;;;12.36;76.83;99087.78;12207406;19;20388;-79
2023/04/24 17:22:36;;;;;;;6.57;3.47;;;;;;;12.20;77.01;99094.47;12211083;19;20015;-77
2023/04/24 17:26:37;;;;;;;7.45;3.65;;;;;;;12.07;79.17;99099.44;12187412;19;20042;-76
2023/04/24 17:30:40;;;;;;;6.50;3.33;;;;;;;11.90;82.73;99120.13;12206367;19;20010;-78
2023/04/24 17:34:42;;;;;;;6.20;3.30;;;;;;;11.69;83.31;99122.88;12212223;19;20404;-78
2023/04/24 17:38:43;;;;;;;7.45;3.78;;;;;;;11.47;84.69;99120.31;12186468;19;20034;-79
2023/04/24 17:42:45;;;;;;;7.20;4.47;;;;;;;11.30;87.34;99116.97;12212712;19;20117;-78
2023/04/24 17:46:47;;;;;;;6.80;4.25;;;;;;;11.07;90.95;99123.81;12209182;19;20002;-78
2023/04/24 17:50:51;;;;;;;8.63;4.88;;;;;;;10.71;100.00;99137.44;12185291;19;20499;-77
2023/04/24 17:54:54;;;;;;;;;;;;;;;10.07;100.00;99145.75;12211011;19;20023;-78
2023/04/24 17:58:57;;;;;;;10.32;5.15;;;;;;;9.38;100.00;99147.31;12186373;19;19911;-78
2023/04/24 18:03:02;;;;;;;9.77;6.25;;;;;;;9.09;100.00;99147.50;12208811;19;20038;-78
2023/04/24 18:07:04;;;;;;;15.07;5.68;;;;;;;8.97;100.00;99149.56;12204790;19;20003;-81
2023/04/24 18:11:08;;;;;;;9.15;5.40;;;;;;;8.87;100.00;99150.28;12189815;19;20031;-80
2023/04/24 18:15:10;;;;;;;13.77;5.90;;;;;;;8.78;100.00;99157.28;12217533;19;20007;-80
2023/04/24 18:19:15;;;;;;;12.35;5.55;;;;;;;8.74;100.00;99155.28;12213054;19;20034;-78
2023/04/24 18:23:18;;;;;;;10.85;5.40;;;;;;;8.74;100.00;99158.88;12191193;19;20075;-78
2023/04/24 18:27:24;;;;;;;8.90;5.15;;;;;;;8.71;100.00;99166.78;12210617;19;20474;-78
2023/04/24 18:31:26;;;;;;;12.38;5.30;;;;;;;8.70;100.00;99176.97;12211188;19;20467;-78
2023/04/24 18:35:30;;;;;;;8.75;5.72;;;;;;;8.66;100.00;99168.41;12191293;19;20024;-78
2023/04/24 18:39:33;;;;;;;10.68;5.75;;;;;;;8.72;100.00;99168.47;12209450;19;20051;-80
2023/04/24 18:43:35;;;;;;;14.02;6.30;;;;;;;8.75;100.00;99162.47;12212292;19;20007;-80
2023/04/24 18:47:38;;;;;;;11.55;6.53;;;;;;;8.87;100.00;99166.75;12190393;19;20014;-79
2023/04/24 18:51:41;;;;;;;;;;;;;;;8.91;100.00;99164.31;12215354;19;20006;-78
2023/04/24 18:55:54;;;;;;;10.07;5.68;;;;;;;8.97;100.00;99163.31;12197284;19;19915;-79
2023/04/24 18:59:56;;;;;;;11.05;6.40;;;;;;;9.09;100.00;99165.94;12214482;19;20007;-80